sensor_id;sensor_type;location;lat;lon;timestamp;P1;durP1;ratioP1;P2;durP2;ratioP2
67041;SDS011;53949;47.790;18.750;2023-03-23T00:00:44;2.12;;;1.87;;
67041;SDS011;53949;47.790;18.750;2023-03-23T00:03:47;3.90;;;1.92;;
67041;SDS011;53949;47.790;18.750;2023-03-23T00:06:51;2.67;;;1.73;;
67041;SDS011;53949;47.790;18.750;2023-03-23T00:09:53;2.37;;;1.75;;
67041;SDS011;53949;47.790;18.750;2023-03-23T00:12:56;3.50;;;2.00;;
67041;SDS011;53949;47.790;18.750;2023-03-23T00:15:59;2.83;;;1.70;;
67041;SDS011;53949;47.790;18.750;2023-03-23T00:19:02;2.40;;;1.70;;
67041;SDS011;53949;47.790;18.750;2023-03-23T00:22:05;2.65;;;1.80;;
67041;SDS011;53949;47.790;18.750;2023-03-23T00:25:08;3.08;;;1.85;;
67041;SDS011;53949;47.790;18.750;2023-03-23T00:28:10;6.53;;;2.20;;
67041;SDS011;53949;47.790;18.750;2023-03-23T00:31:14;2.53;;;1.70;;
67041;SDS011;53949;47.790;18.750;2023-03-23T00:34:18;2.25;;;1.87;;
67041;SDS011;53949;47.790;18.750;2023-03-23T00:37:21;7.00;;;1.50;;
67041;SDS011;53949;47.790;18.750;2023-03-23T00:40:24;3.50;;;1.70;;
67041;SDS011;53949;47.790;18.750;2023-03-23T00:43:28;2.92;;;2.15;;
67041;SDS011;53949;47.790;18.750;2023-03-23T00:46:31;1.60;;;1.50;;
67041;SDS011;53949;47.790;18.750;2023-03-23T00:49:33;1.55;;;1.42;;
67041;SDS011;53949;47.790;18.750;2023-03-23T00:52:36;4.53;;;2.75;;
67041;SDS011;53949;47.790;18.750;2023-03-23T00:55:40;4.18;;;1.95;;
67041;SDS011;53949;47.790;18.750;2023-03-23T00:58:43;1.70;;;1.60;;
67041;SDS011;53949;47.790;18.750;2023-03-23T01:01:45;1.95;;;1.30;;
67041;SDS011;53949;47.790;18.750;2023-03-23T01:04:48;4.00;;;1.60;;
67041;SDS011;53949;47.790;18.750;2023-03-23T01:07:53;1.52;;;1.40;;
67041;SDS011;53949;47.790;18.750;2023-03-23T01:11:04;1.48;;;1.37;;
67041;SDS011;53949;47.790;18.750;2023-03-23T01:14:08;2.20;;;1.62;;
67041;SDS011;53949;47.790;18.750;2023-03-23T01:17:10;2.75;;;1.80;;
67041;SDS011;53949;47.790;18.750;2023-03-23T01:20:14;2.70;;;1.73;;
67041;SDS011;53949;47.790;18.750;2023-03-23T01:23:17;1.83;;;1.60;;
67041;SDS011;53949;47.790;18.750;2023-03-23T01:26:21;2.87;;;2.10;;
67041;SDS011;53949;47.790;18.750;2023-03-23T01:29:25;2.25;;;1.75;;
67041;SDS011;53949;47.790;18.750;2023-03-23T01:32:28;2.85;;;1.95;;
67041;SDS011;53949;47.790;18.750;2023-03-23T01:35:30;4.15;;;2.17;;
67041;SDS011;53949;47.790;18.750;2023-03-23T01:38:33;2.12;;;1.92;;
67041;SDS011;53949;47.790;18.750;2023-03-23T01:41:35;2.45;;;1.80;;
67041;SDS011;53949;47.790;18.750;2023-03-23T01:47:40;1.87;;;1.77;;
67041;SDS011;53949;47.790;18.750;2023-03-23T01:51:04;3.10;;;2.20;;
67041;SDS011;53949;47.790;18.750;2023-03-23T01:54:06;3.45;;;1.85;;
67041;SDS011;53949;47.790;18.750;2023-03-23T01:57:15;4.03;;;1.70;;
67041;SDS011;53949;47.790;18.750;2023-03-23T02:00:19;1.98;;;1.87;;
67041;SDS011;53949;47.790;18.750;2023-03-23T02:03:21;1.75;;;1.65;;
67041;SDS011;53949;47.790;18.750;2023-03-23T02:06:24;1.35;;;1.25;;
67041;SDS011;53949;47.790;18.750;2023-03-23T02:09:30;1.58;;;1.48;;
67041;SDS011;53949;47.790;18.750;2023-03-23T02:12:32;1.87;;;1.37;;
67041;SDS011;53949;47.790;18.750;2023-03-23T02:16:09;2.05;;;1.58;;
67041;SDS011;53949;47.790;18.750;2023-03-23T02:26:24;2.00;;;1.60;;
67041;SDS011;53949;47.790;18.750;2023-03-23T02:36:19;3.15;;;1.80;;
67041;SDS011;53949;47.790;18.750;2023-03-23T02:39:23;2.05;;;1.55;;
67041;SDS011;53949;47.790;18.750;2023-03-23T02:42:28;1.98;;;1.77;;
67041;SDS011;53949;47.790;18.750;2023-03-23T02:45:33;2.60;;;1.80;;
67041;SDS011;53949;47.790;18.750;2023-03-23T02:48:38;1.62;;;1.52;;
67041;SDS011;53949;47.790;18.750;2023-03-23T02:51:41;2.53;;;1.48;;
67041;SDS011;53949;47.790;18.750;2023-03-23T02:54:46;2.85;;;2.05;;
67041;SDS011;53949;47.790;18.750;2023-03-23T02:57:50;2.00;;;1.80;;
67041;SDS011;53949;47.790;18.750;2023-03-23T03:00:54;3.53;;;1.90;;
67041;SDS011;53949;47.790;18.750;2023-03-23T03:03:57;3.10;;;1.67;;
67041;SDS011;53949;47.790;18.750;2023-03-23T03:11:15;2.60;;;1.80;;
67041;SDS011;53949;47.790;18.750;2023-03-23T03:14:10;3.80;;;2.33;;
67041;SDS011;53949;47.790;18.750;2023-03-23T03:17:24;2.58;;;2.00;;
67041;SDS011;53949;47.790;18.750;2023-03-23T03:20:27;3.72;;;2.97;;
67041;SDS011;53949;47.790;18.750;2023-03-23T03:23:31;2.62;;;2.42;;
67041;SDS011;53949;47.790;18.750;2023-03-23T03:26:37;2.40;;;2.20;;
67041;SDS011;53949;47.790;18.750;2023-03-23T03:29:48;3.70;;;3.00;;
67041;SDS011;53949;47.790;18.750;2023-03-23T03:32:54;3.28;;;2.60;;
67041;SDS011;53949;47.790;18.750;2023-03-23T03:35:57;3.95;;;1.92;;
67041;SDS011;53949;47.790;18.750;2023-03-23T03:39:05;1.73;;;1.62;;
67041;SDS011;53949;47.790;18.750;2023-03-23T03:42:10;3.47;;;1.92;;
67041;SDS011;53949;47.790;18.750;2023-03-23T03:45:13;2.00;;;1.80;;
67041;SDS011;53949;47.790;18.750;2023-03-23T03:48:17;2.58;;;1.80;;
67041;SDS011;53949;47.790;18.750;2023-03-23T03:51:19;3.50;;;1.98;;
67041;SDS011;53949;47.790;18.750;2023-03-23T03:54:22;5.10;;;1.83;;
67041;SDS011;53949;47.790;18.750;2023-03-23T03:57:25;2.80;;;2.50;;
67041;SDS011;53949;47.790;18.750;2023-03-23T04:00:31;4.03;;;2.80;;
67041;SDS011;53949;47.790;18.750;2023-03-23T04:03:33;3.62;;;2.10;;
67041;SDS011;53949;47.790;18.750;2023-03-23T04:06:36;3.97;;;2.80;;
67041;SDS011;53949;47.790;18.750;2023-03-23T04:09:40;4.93;;;2.97;;
67041;SDS011;53949;47.790;18.750;2023-03-23T04:12:43;2.70;;;1.90;;
67041;SDS011;53949;47.790;18.750;2023-03-23T04:15:50;4.22;;;1.60;;
67041;SDS011;53949;47.790;18.750;2023-03-23T04:18:52;3.03;;;1.92;;
67041;SDS011;53949;47.790;18.750;2023-03-23T04:21:54;3.47;;;1.70;;
67041;SDS011;53949;47.790;18.750;2023-03-23T04:24:57;1.90;;;1.80;;
67041;SDS011;53949;47.790;18.750;2023-03-23T04:28:02;2.58;;;2.05;;
67041;SDS011;53949;47.790;18.750;2023-03-23T04:31:05;1.83;;;1.73;;
67041;SDS011;53949;47.790;18.750;2023-03-23T04:34:07;2.08;;;1.95;;
67041;SDS011;53949;47.790;18.750;2023-03-23T04:37:10;3.53;;;1.90;;
67041;SDS011;53949;47.790;18.750;2023-03-23T04:40:14;2.75;;;2.05;;
67041;SDS011;53949;47.790;18.750;2023-03-23T04:43:18;2.97;;;1.90;;
67041;SDS011;53949;47.790;18.750;2023-03-23T04:46:25;3.30;;;2.05;;
67041;SDS011;53949;47.790;18.750;2023-03-23T04:49:30;2.92;;;2.17;;
67041;SDS011;53949;47.790;18.750;2023-03-23T04:52:33;3.95;;;2.12;;
67041;SDS011;53949;47.790;18.750;2023-03-23T04:55:35;2.15;;;1.90;;
67041;SDS011;53949;47.790;18.750;2023-03-23T04:58:39;5.83;;;2.00;;
67041;SDS011;53949;47.790;18.750;2023-03-23T05:01:43;3.85;;;2.00;;
67041;SDS011;53949;47.790;18.750;2023-03-23T05:04:47;2.30;;;2.10;;
67041;SDS011;53949;47.790;18.750;2023-03-23T05:07:50;1.90;;;1.70;;
67041;SDS011;53949;47.790;18.750;2023-03-23T05:10:57;2.30;;;1.70;;
67041;SDS011;53949;47.790;18.750;2023-03-23T05:14:00;1.55;;;1.45;;
67041;SDS011;53949;47.790;18.750;2023-03-23T05:17:02;1.60;;;1.50;;
67041;SDS011;53949;47.790;18.750;2023-03-23T05:20:04;3.60;;;1.55;;
67041;SDS011;53949;47.790;18.750;2023-03-23T05:23:10;4.30;;;1.95;;
67041;SDS011;53949;47.790;18.750;2023-03-23T05:26:13;2.25;;;1.95;;
67041;SDS011;53949;47.790;18.750;2023-03-23T05:29:16;1.75;;;1.65;;
67041;SDS011;53949;47.790;18.750;2023-03-23T05:32:20;3.67;;;1.75;;
67041;SDS011;53949;47.790;18.750;2023-03-23T05:35:23;2.85;;;2.20;;
67041;SDS011;53949;47.790;18.750;2023-03-23T05:38:26;2.72;;;1.80;;
67041;SDS011;53949;47.790;18.750;2023-03-23T05:41:28;4.97;;;2.50;;
67041;SDS011;53949;47.790;18.750;2023-03-23T05:44:30;3.58;;;1.50;;
67041;SDS011;53949;47.790;18.750;2023-03-23T05:47:33;2.58;;;1.87;;
67041;SDS011;53949;47.790;18.750;2023-03-23T05:50:37;2.22;;;1.75;;
67041;SDS011;53949;47.790;18.750;2023-03-23T05:53:39;2.60;;;2.17;;
67041;SDS011;53949;47.790;18.750;2023-03-23T05:56:44;4.32;;;2.97;;
67041;SDS011;53949;47.790;18.750;2023-03-23T05:59:47;5.05;;;3.22;;
67041;SDS011;53949;47.790;18.750;2023-03-23T06:02:49;7.30;;;3.55;;
67041;SDS011;53949;47.790;18.750;2023-03-23T06:05:54;5.97;;;3.83;;
67041;SDS011;53949;47.790;18.750;2023-03-23T06:08:56;5.30;;;3.87;;
67041;SDS011;53949;47.790;18.750;2023-03-23T06:12:00;5.47;;;3.50;;
67041;SDS011;53949;47.790;18.750;2023-03-23T06:15:03;6.25;;;3.40;;
67041;SDS011;53949;47.790;18.750;2023-03-23T06:18:12;5.68;;;4.47;;
67041;SDS011;53949;47.790;18.750;2023-03-23T06:21:14;9.65;;;5.30;;
67041;SDS011;53949;47.790;18.750;2023-03-23T06:24:17;10.27;;;6.47;;
67041;SDS011;53949;47.790;18.750;2023-03-23T06:27:19;15.50;;;6.60;;
67041;SDS011;53949;47.790;18.750;2023-03-23T06:30:21;11.73;;;6.22;;
67041;SDS011;53949;47.790;18.750;2023-03-23T06:33:26;9.60;;;6.22;;
67041;SDS011;53949;47.790;18.750;2023-03-23T06:36:38;11.02;;;5.93;;
67041;SDS011;53949;47.790;18.750;2023-03-23T06:39:40;8.00;;;5.57;;
67041;SDS011;53949;47.790;18.750;2023-03-23T06:42:42;9.82;;;5.85;;
67041;SDS011;53949;47.790;18.750;2023-03-23T06:45:45;11.52;;;5.75;;
67041;SDS011;53949;47.790;18.750;2023-03-23T06:48:49;11.55;;;5.37;;
67041;SDS011;53949;47.790;18.750;2023-03-23T06:51:52;8.63;;;5.35;;
67041;SDS011;53949;47.790;18.750;2023-03-23T06:54:54;7.93;;;5.15;;
67041;SDS011;53949;47.790;18.750;2023-03-23T06:57:56;6.95;;;4.40;;
67041;SDS011;53949;47.790;18.750;2023-03-23T07:01:00;7.75;;;4.60;;
67041;SDS011;53949;47.790;18.750;2023-03-23T07:04:04;9.45;;;4.68;;
67041;SDS011;53949;47.790;18.750;2023-03-23T07:07:08;7.62;;;4.90;;
67041;SDS011;53949;47.790;18.750;2023-03-23T07:13:15;12.60;;;5.78;;
67041;SDS011;53949;47.790;18.750;2023-03-23T07:16:17;10.30;;;6.72;;
67041;SDS011;53949;47.790;18.750;2023-03-23T07:19:20;10.40;;;6.97;;
67041;SDS011;53949;47.790;18.750;2023-03-23T07:22:23;11.63;;;5.93;;
67041;SDS011;53949;47.790;18.750;2023-03-23T07:25:27;11.45;;;6.47;;
67041;SDS011;53949;47.790;18.750;2023-03-23T07:28:30;11.70;;;5.95;;
67041;SDS011;53949;47.790;18.750;2023-03-23T07:34:37;9.38;;;5.70;;
67041;SDS011;53949;47.790;18.750;2023-03-23T07:37:41;9.20;;;5.28;;
67041;SDS011;53949;47.790;18.750;2023-03-23T07:40:43;11.10;;;4.80;;
67041;SDS011;53949;47.790;18.750;2023-03-23T07:43:46;7.93;;;4.40;;
67041;SDS011;53949;47.790;18.750;2023-03-23T07:46:50;6.25;;;4.37;;
67041;SDS011;53949;47.790;18.750;2023-03-23T07:49:53;5.00;;;3.83;;
67041;SDS011;53949;47.790;18.750;2023-03-23T07:52:56;6.45;;;3.37;;
67041;SDS011;53949;47.790;18.750;2023-03-23T07:55:59;6.47;;;2.80;;
67041;SDS011;53949;47.790;18.750;2023-03-23T07:59:06;3.37;;;2.90;;
67041;SDS011;53949;47.790;18.750;2023-03-23T08:02:09;5.22;;;2.62;;
67041;SDS011;53949;47.790;18.750;2023-03-23T08:05:12;4.47;;;2.92;;
67041;SDS011;53949;47.790;18.750;2023-03-23T08:08:15;3.17;;;2.78;;
67041;SDS011;53949;47.790;18.750;2023-03-23T08:11:20;4.32;;;2.75;;
67041;SDS011;53949;47.790;18.750;2023-03-23T08:14:22;4.03;;;3.10;;
67041;SDS011;53949;47.790;18.750;2023-03-23T08:17:31;3.58;;;2.50;;
67041;SDS011;53949;47.790;18.750;2023-03-23T08:20:33;3.67;;;2.95;;
67041;SDS011;53949;47.790;18.750;2023-03-23T08:23:37;4.57;;;2.72;;
67041;SDS011;53949;47.790;18.750;2023-03-23T08:26:40;5.95;;;2.58;;
67041;SDS011;53949;47.790;18.750;2023-03-23T08:29:44;3.50;;;2.50;;
67041;SDS011;53949;47.790;18.750;2023-03-23T08:32:47;3.42;;;2.72;;
67041;SDS011;53949;47.790;18.750;2023-03-23T08:38:59;3.05;;;2.58;;
67041;SDS011;53949;47.790;18.750;2023-03-23T08:42:02;4.68;;;3.20;;
67041;SDS011;53949;47.790;18.750;2023-03-23T08:45:06;4.12;;;2.97;;
67041;SDS011;53949;47.790;18.750;2023-03-23T08:48:09;2.90;;;2.60;;
67041;SDS011;53949;47.790;18.750;2023-03-23T08:51:12;4.60;;;2.90;;
67041;SDS011;53949;47.790;18.750;2023-03-23T08:54:14;10.93;;;3.62;;
67041;SDS011;53949;47.790;18.750;2023-03-23T08:57:18;3.58;;;3.28;;
67041;SDS011;53949;47.790;18.750;2023-03-23T09:00:21;8.85;;;3.97;;
67041;SDS011;53949;47.790;18.750;2023-03-23T09:03:27;9.05;;;3.83;;
67041;SDS011;53949;47.790;18.750;2023-03-23T09:06:30;5.53;;;3.42;;
67041;SDS011;53949;47.790;18.750;2023-03-23T09:09:32;6.43;;;3.30;;
67041;SDS011;53949;47.790;18.750;2023-03-23T09:12:35;4.55;;;3.30;;
67041;SDS011;53949;47.790;18.750;2023-03-23T09:15:38;5.15;;;3.10;;
67041;SDS011;53949;47.790;18.750;2023-03-23T09:18:40;5.57;;;3.45;;
67041;SDS011;53949;47.790;18.750;2023-03-23T09:21:42;4.12;;;2.95;;
67041;SDS011;53949;47.790;18.750;2023-03-23T09:24:47;8.43;;;3.53;;
67041;SDS011;53949;47.790;18.750;2023-03-23T09:27:49;6.72;;;3.62;;
67041;SDS011;53949;47.790;18.750;2023-03-23T09:30:57;3.78;;;3.25;;
67041;SDS011;53949;47.790;18.750;2023-03-23T09:34:00;5.12;;;3.28;;
67041;SDS011;53949;47.790;18.750;2023-03-23T09:37:04;5.07;;;3.47;;
67041;SDS011;53949;47.790;18.750;2023-03-23T09:40:10;6.22;;;3.30;;
67041;SDS011;53949;47.790;18.750;2023-03-23T09:56:39;3.80;;;3.40;;
67041;SDS011;53949;47.790;18.750;2023-03-23T09:59:47;4.22;;;3.65;;
67041;SDS011;53949;47.790;18.750;2023-03-23T10:03:04;3.58;;;3.28;;
67041;SDS011;53949;47.790;18.750;2023-03-23T10:06:08;5.25;;;3.55;;
67041;SDS011;53949;47.790;18.750;2023-03-23T10:15:32;5.12;;;4.10;;
67041;SDS011;53949;47.790;18.750;2023-03-23T10:21:47;5.07;;;3.70;;
67041;SDS011;53949;47.790;18.750;2023-03-23T10:28:18;5.45;;;4.10;;
67041;SDS011;53949;47.790;18.750;2023-03-23T10:31:24;5.93;;;4.00;;
67041;SDS011;53949;47.790;18.750;2023-03-23T10:34:40;10.00;;;4.18;;
67041;SDS011;53949;47.790;18.750;2023-03-23T10:37:50;5.35;;;3.40;;
67041;SDS011;53949;47.790;18.750;2023-03-23T10:40:57;4.40;;;3.37;;
67041;SDS011;53949;47.790;18.750;2023-03-23T10:44:04;5.75;;;3.78;;
67041;SDS011;53949;47.790;18.750;2023-03-23T10:47:11;5.35;;;3.75;;
67041;SDS011;53949;47.790;18.750;2023-03-23T10:50:15;6.75;;;3.95;;
67041;SDS011;53949;47.790;18.750;2023-03-23T10:53:21;3.83;;;3.47;;
67041;SDS011;53949;47.790;18.750;2023-03-23T10:56:27;5.82;;;3.15;;
67041;SDS011;53949;47.790;18.750;2023-03-23T10:59:31;4.75;;;3.28;;
67041;SDS011;53949;47.790;18.750;2023-03-23T11:02:40;5.10;;;3.20;;
67041;SDS011;53949;47.790;18.750;2023-03-23T11:05:44;4.85;;;2.95;;
67041;SDS011;53949;47.790;18.750;2023-03-23T11:08:49;4.47;;;2.90;;
67041;SDS011;53949;47.790;18.750;2023-03-23T11:11:54;3.42;;;2.72;;
67041;SDS011;53949;47.790;18.750;2023-03-23T11:15:03;4.40;;;3.22;;
67041;SDS011;53949;47.790;18.750;2023-03-23T11:18:13;3.87;;;3.00;;
67041;SDS011;53949;47.790;18.750;2023-03-23T11:21:21;4.93;;;3.00;;
67041;SDS011;53949;47.790;18.750;2023-03-23T11:24:25;4.77;;;2.70;;
67041;SDS011;53949;47.790;18.750;2023-03-23T11:27:28;4.80;;;3.27;;
67041;SDS011;53949;47.790;18.750;2023-03-23T11:30:30;4.35;;;3.40;;
67041;SDS011;53949;47.790;18.750;2023-03-23T11:33:46;4.25;;;3.47;;
67041;SDS011;53949;47.790;18.750;2023-03-23T11:36:58;5.05;;;3.25;;
67041;SDS011;53949;47.790;18.750;2023-03-23T11:43:14;5.28;;;3.75;;
67041;SDS011;53949;47.790;18.750;2023-03-23T11:49:54;4.32;;;3.25;;
67041;SDS011;53949;47.790;18.750;2023-03-23T11:56:28;6.12;;;3.70;;
67041;SDS011;53949;47.790;18.750;2023-03-23T11:59:44;3.55;;;3.00;;
67041;SDS011;53949;47.790;18.750;2023-03-23T12:06:11;4.10;;;2.42;;
67041;SDS011;53949;47.790;18.750;2023-03-23T12:13:05;3.50;;;2.37;;
67041;SDS011;53949;47.790;18.750;2023-03-23T12:20:24;3.62;;;2.30;;
67041;SDS011;53949;47.790;18.750;2023-03-23T12:23:38;2.53;;;2.30;;
67041;SDS011;53949;47.790;18.750;2023-03-23T12:27:05;2.50;;;2.30;;
67041;SDS011;53949;47.790;18.750;2023-03-23T12:36:53;5.37;;;2.10;;
67041;SDS011;53949;47.790;18.750;2023-03-23T12:50:13;4.50;;;2.40;;
67041;SDS011;53949;47.790;18.750;2023-03-23T12:53:32;2.85;;;2.35;;
67041;SDS011;53949;47.790;18.750;2023-03-23T13:06:46;2.70;;;2.20;;
67041;SDS011;53949;47.790;18.750;2023-03-23T13:09:53;2.33;;;2.12;;
67041;SDS011;53949;47.790;18.750;2023-03-23T13:12:56;4.57;;;2.33;;
67041;SDS011;53949;47.790;18.750;2023-03-23T13:22:25;3.97;;;2.62;;
67041;SDS011;53949;47.790;18.750;2023-03-23T13:29:06;3.10;;;2.28;;
67041;SDS011;53949;47.790;18.750;2023-03-23T13:32:16;2.65;;;2.08;;
67041;SDS011;53949;47.790;18.750;2023-03-23T13:35:20;3.30;;;2.45;;
67041;SDS011;53949;47.790;18.750;2023-03-23T13:38:26;2.20;;;2.00;;
67041;SDS011;53949;47.790;18.750;2023-03-23T13:41:30;2.62;;;2.17;;
67041;SDS011;53949;47.790;18.750;2023-03-23T13:48:01;3.40;;;1.95;;
67041;SDS011;53949;47.790;18.750;2023-03-23T13:54:45;4.65;;;1.83;;
67041;SDS011;53949;47.790;18.750;2023-03-23T14:04:17;2.28;;;1.92;;
67041;SDS011;53949;47.790;18.750;2023-03-23T14:07:20;1.98;;;1.80;;
67041;SDS011;53949;47.790;18.750;2023-03-23T14:10:23;2.58;;;1.87;;
67041;SDS011;53949;47.790;18.750;2023-03-23T14:16:48;3.53;;;1.80;;
67041;SDS011;53949;47.790;18.750;2023-03-23T14:19:53;1.55;;;1.45;;
67041;SDS011;53949;47.790;18.750;2023-03-23T14:22:57;2.72;;;1.90;;
67041;SDS011;53949;47.790;18.750;2023-03-23T14:26:01;2.45;;;1.90;;
67041;SDS011;53949;47.790;18.750;2023-03-23T14:29:09;2.97;;;2.10;;
67041;SDS011;53949;47.790;18.750;2023-03-23T14:35:31;3.30;;;2.12;;
67041;SDS011;53949;47.790;18.750;2023-03-23T14:38:35;2.15;;;1.95;;
67041;SDS011;53949;47.790;18.750;2023-03-23T14:41:37;3.42;;;1.83;;
67041;SDS011;53949;47.790;18.750;2023-03-23T14:44:40;3.05;;;1.55;;
67041;SDS011;53949;47.790;18.750;2023-03-23T14:47:45;2.50;;;1.60;;
67041;SDS011;53949;47.790;18.750;2023-03-23T14:50:52;3.15;;;1.90;;
67041;SDS011;53949;47.790;18.750;2023-03-23T14:54:07;4.90;;;2.00;;
67041;SDS011;53949;47.790;18.750;2023-03-23T14:57:20;2.47;;;1.90;;
67041;SDS011;53949;47.790;18.750;2023-03-23T15:00:30;4.03;;;1.80;;
67041;SDS011;53949;47.790;18.750;2023-03-23T15:03:42;3.28;;;2.10;;
67041;SDS011;53949;47.790;18.750;2023-03-23T15:06:54;2.20;;;2.00;;
67041;SDS011;53949;47.790;18.750;2023-03-23T15:09:58;2.95;;;2.00;;
67041;SDS011;53949;47.790;18.750;2023-03-23T15:13:00;3.80;;;2.30;;
67041;SDS011;53949;47.790;18.750;2023-03-23T15:16:03;6.60;;;2.25;;
67041;SDS011;53949;47.790;18.750;2023-03-23T15:19:26;4.53;;;2.12;;
67041;SDS011;53949;47.790;18.750;2023-03-23T15:22:30;6.55;;;1.98;;
67041;SDS011;53949;47.790;18.750;2023-03-23T15:25:34;2.28;;;1.80;;
67041;SDS011;53949;47.790;18.750;2023-03-23T15:28:40;3.30;;;1.87;;
67041;SDS011;53949;47.790;18.750;2023-03-23T15:31:48;3.42;;;1.70;;
67041;SDS011;53949;47.790;18.750;2023-03-23T15:34:55;3.05;;;1.95;;
67041;SDS011;53949;47.790;18.750;2023-03-23T15:37:59;3.92;;;2.00;;
67041;SDS011;53949;47.790;18.750;2023-03-23T15:41:06;3.62;;;2.08;;
67041;SDS011;53949;47.790;18.750;2023-03-23T15:44:27;2.20;;;2.00;;
67041;SDS011;53949;47.790;18.750;2023-03-23T15:50:47;4.28;;;2.10;;
67041;SDS011;53949;47.790;18.750;2023-03-23T15:53:50;4.93;;;2.20;;
67041;SDS011;53949;47.790;18.750;2023-03-23T15:56:53;5.10;;;2.15;;
67041;SDS011;53949;47.790;18.750;2023-03-23T15:59:55;3.83;;;1.85;;
67041;SDS011;53949;47.790;18.750;2023-03-23T16:02:59;2.27;;;1.83;;
67041;SDS011;53949;47.790;18.750;2023-03-23T16:06:04;2.95;;;1.83;;
67041;SDS011;53949;47.790;18.750;2023-03-23T16:09:11;2.92;;;2.20;;
67041;SDS011;53949;47.790;18.750;2023-03-23T16:12:17;2.55;;;2.03;;
67041;SDS011;53949;47.790;18.750;2023-03-23T16:15:20;3.75;;;2.40;;
67041;SDS011;53949;47.790;18.750;2023-03-23T16:18:23;5.95;;;2.53;;
67041;SDS011;53949;47.790;18.750;2023-03-23T16:21:27;3.62;;;1.85;;
67041;SDS011;53949;47.790;18.750;2023-03-23T16:24:30;3.70;;;2.33;;
67041;SDS011;53949;47.790;18.750;2023-03-23T16:27:33;5.93;;;3.75;;
67041;SDS011;53949;47.790;18.750;2023-03-23T16:30:37;7.00;;;2.85;;
67041;SDS011;53949;47.790;18.750;2023-03-23T16:33:43;3.55;;;2.75;;
67041;SDS011;53949;47.790;18.750;2023-03-23T16:36:46;5.07;;;2.80;;
67041;SDS011;53949;47.790;18.750;2023-03-23T16:39:49;6.35;;;2.20;;
67041;SDS011;53949;47.790;18.750;2023-03-23T16:42:53;4.95;;;2.28;;
67041;SDS011;53949;47.790;18.750;2023-03-23T16:45:56;1.77;;;1.67;;
67041;SDS011;53949;47.790;18.750;2023-03-23T16:49:05;3.05;;;2.10;;
67041;SDS011;53949;47.790;18.750;2023-03-23T16:52:09;2.50;;;1.60;;
67041;SDS011;53949;47.790;18.750;2023-03-23T16:55:13;3.95;;;2.42;;
67041;SDS011;53949;47.790;18.750;2023-03-23T16:58:17;6.95;;;2.03;;
67041;SDS011;53949;47.790;18.750;2023-03-23T17:01:21;4.22;;;2.50;;
67041;SDS011;53949;47.790;18.750;2023-03-23T17:04:24;3.50;;;2.17;;
67041;SDS011;53949;47.790;18.750;2023-03-23T17:07:27;2.37;;;2.03;;
67041;SDS011;53949;47.790;18.750;2023-03-23T17:10:31;2.58;;;2.03;;
67041;SDS011;53949;47.790;18.750;2023-03-23T17:13:35;2.30;;;2.10;;
67041;SDS011;53949;47.790;18.750;2023-03-23T17:16:39;5.35;;;1.73;;
67041;SDS011;53949;47.790;18.750;2023-03-23T17:19:43;4.15;;;1.73;;
67041;SDS011;53949;47.790;18.750;2023-03-23T17:22:46;3.87;;;1.92;;
67041;SDS011;53949;47.790;18.750;2023-03-23T17:25:50;9.53;;;2.43;;
67041;SDS011;53949;47.790;18.750;2023-03-23T17:28:53;2.30;;;2.10;;
67041;SDS011;53949;47.790;18.750;2023-03-23T17:31:57;5.30;;;2.00;;
67041;SDS011;53949;47.790;18.750;2023-03-23T17:35:00;2.85;;;2.20;;
67041;SDS011;53949;47.790;18.750;2023-03-23T17:38:04;3.25;;;2.25;;
67041;SDS011;53949;47.790;18.750;2023-03-23T17:41:08;2.17;;;2.00;;
67041;SDS011;53949;47.790;18.750;2023-03-23T17:44:13;3.80;;;2.33;;
67041;SDS011;53949;47.790;18.750;2023-03-23T17:47:18;4.72;;;2.35;;
67041;SDS011;53949;47.790;18.750;2023-03-23T17:50:24;2.25;;;2.00;;
67041;SDS011;53949;47.790;18.750;2023-03-23T17:53:29;5.95;;;2.12;;
67041;SDS011;53949;47.790;18.750;2023-03-23T17:56:34;4.12;;;2.50;;
67041;SDS011;53949;47.790;18.750;2023-03-23T17:59:37;3.35;;;2.00;;
67041;SDS011;53949;47.790;18.750;2023-03-23T18:02:42;3.30;;;2.40;;
67041;SDS011;53949;47.790;18.750;2023-03-23T18:08:52;4.45;;;1.92;;
67041;SDS011;53949;47.790;18.750;2023-03-23T18:15:03;6.55;;;2.87;;
67041;SDS011;53949;47.790;18.750;2023-03-23T18:18:08;4.53;;;2.78;;
67041;SDS011;53949;47.790;18.750;2023-03-23T18:21:12;3.70;;;2.78;;
67041;SDS011;53949;47.790;18.750;2023-03-23T18:24:17;3.40;;;2.58;;
67041;SDS011;53949;47.790;18.750;2023-03-23T18:27:23;3.78;;;3.12;;
67041;SDS011;53949;47.790;18.750;2023-03-23T18:30:29;4.78;;;2.83;;
67041;SDS011;53949;47.790;18.750;2023-03-23T18:33:33;4.35;;;2.55;;
67041;SDS011;53949;47.790;18.750;2023-03-23T18:36:43;5.15;;;3.28;;
67041;SDS011;53949;47.790;18.750;2023-03-23T18:39:47;3.42;;;2.75;;
67041;SDS011;53949;47.790;18.750;2023-03-23T18:42:53;6.03;;;3.28;;
67041;SDS011;53949;47.790;18.750;2023-03-23T18:45:57;3.67;;;2.80;;
67041;SDS011;53949;47.790;18.750;2023-03-23T18:49:03;4.78;;;2.75;;
67041;SDS011;53949;47.790;18.750;2023-03-23T18:52:07;5.40;;;3.10;;
67041;SDS011;53949;47.790;18.750;2023-03-23T18:55:13;3.47;;;2.50;;
67041;SDS011;53949;47.790;18.750;2023-03-23T18:58:17;4.70;;;2.87;;
67041;SDS011;53949;47.790;18.750;2023-03-23T19:01:30;3.45;;;2.25;;
67041;SDS011;53949;47.790;18.750;2023-03-23T19:04:35;3.40;;;2.35;;
67041;SDS011;53949;47.790;18.750;2023-03-23T19:07:41;4.22;;;2.58;;
67041;SDS011;53949;47.790;18.750;2023-03-23T19:10:45;3.65;;;2.85;;
67041;SDS011;53949;47.790;18.750;2023-03-23T19:13:53;4.90;;;2.80;;
67041;SDS011;53949;47.790;18.750;2023-03-23T19:17:05;5.62;;;3.03;;
67041;SDS011;53949;47.790;18.750;2023-03-23T19:20:11;5.07;;;3.40;;
67041;SDS011;53949;47.790;18.750;2023-03-23T19:23:37;4.57;;;3.72;;
67041;SDS011;53949;47.790;18.750;2023-03-23T19:26:42;6.45;;;3.08;;
67041;SDS011;53949;47.790;18.750;2023-03-23T19:29:48;6.20;;;4.65;;
67041;SDS011;53949;47.790;18.750;2023-03-23T19:36:00;4.18;;;3.78;;
67041;SDS011;53949;47.790;18.750;2023-03-23T19:39:16;5.85;;;4.47;;
67041;SDS011;53949;47.790;18.750;2023-03-23T19:42:20;7.50;;;5.07;;
67041;SDS011;53949;47.790;18.750;2023-03-23T19:45:27;6.37;;;4.80;;
67041;SDS011;53949;47.790;18.750;2023-03-23T19:48:34;6.85;;;4.22;;
67041;SDS011;53949;47.790;18.750;2023-03-23T19:51:42;7.82;;;5.28;;
67041;SDS011;53949;47.790;18.750;2023-03-23T19:54:48;8.55;;;4.60;;
67041;SDS011;53949;47.790;18.750;2023-03-23T19:57:56;7.50;;;4.85;;
67041;SDS011;53949;47.790;18.750;2023-03-23T20:01:05;7.72;;;4.57;;
67041;SDS011;53949;47.790;18.750;2023-03-23T20:04:10;8.30;;;4.37;;
67041;SDS011;53949;47.790;18.750;2023-03-23T20:10:23;6.30;;;4.35;;
67041;SDS011;53949;47.790;18.750;2023-03-23T20:13:29;7.22;;;4.18;;
67041;SDS011;53949;47.790;18.750;2023-03-23T20:16:33;6.90;;;4.28;;
67041;SDS011;53949;47.790;18.750;2023-03-23T20:19:38;6.20;;;4.50;;
67041;SDS011;53949;47.790;18.750;2023-03-23T20:22:44;6.93;;;3.83;;
67041;SDS011;53949;47.790;18.750;2023-03-23T20:28:53;4.23;;;3.53;;
67041;SDS011;53949;47.790;18.750;2023-03-23T20:31:59;5.07;;;3.58;;
67041;SDS011;53949;47.790;18.750;2023-03-23T20:35:04;7.68;;;3.78;;
67041;SDS011;53949;47.790;18.750;2023-03-23T20:38:12;4.50;;;3.70;;
67041;SDS011;53949;47.790;18.750;2023-03-23T20:41:16;7.30;;;3.90;;
67041;SDS011;53949;47.790;18.750;2023-03-23T20:44:23;6.97;;;4.25;;
67041;SDS011;53949;47.790;18.750;2023-03-23T20:47:36;5.37;;;4.15;;
67041;SDS011;53949;47.790;18.750;2023-03-23T20:50:41;9.30;;;5.07;;